createdAt,value
2023-02-16T02:30:40.119Z,73.13
2023-02-16T02:33:21.546Z,72.30
2023-02-16T02:36:28.101Z,72.57
2023-02-16T02:39:25.061Z,73.43
2023-02-16T02:42:25.404Z,79.17
2023-02-16T02:45:08.269Z,76.57
2023-02-16T02:47:52.199Z,69.07
2023-02-16T02:50:44.502Z,74.85
2023-02-16T02:53:19.453Z,78.40
2023-02-16T02:56:33.849Z,83.07
2023-02-16T02:59:30.380Z,76.37
2023-02-16T03:02:15.793Z,79.50
2023-02-16T03:05:02.012Z,68.40
2023-02-16T03:07:47.280Z,71.73
2023-02-16T03:10:41.250Z,85.63
2023-02-16T03:13:36.833Z,70.80
2023-02-16T03:16:12.576Z,77.50
2023-02-16T03:19:02.511Z,77.20
2023-02-16T03:21:57.437Z,75.90
2023-02-16T03:24:48.890Z,78.50
2023-02-16T03:27:46.287Z,71.93
2023-02-16T03:30:18.721Z,68.28
2023-02-16T03:32:54.803Z,78.53
2023-02-16T03:35:34.137Z,74.20
2023-02-16T03:38:08.675Z,71.80
2023-02-16T03:40:46.140Z,65.70
2023-02-16T03:43:14.984Z,74.25
2023-02-16T03:45:45.756Z,74.38
2023-02-16T03:48:16.777Z,67.50
2023-02-16T03:50:51.353Z,73.15
2023-02-16T03:53:26.420Z,77.93
2023-02-16T03:56:02.230Z,70.88
2023-02-16T03:58:35.782Z,69.63
2023-02-16T04:01:21.457Z,73.07
2023-02-16T04:03:52.244Z,73.07
2023-02-16T04:06:27.801Z,77.27
2023-02-16T04:09:07.174Z,73.68
2023-02-16T04:11:59.758Z,66.40
2023-02-16T04:14:31.621Z,87.83
2023-02-16T04:17:04.586Z,78.22
2023-02-16T04:19:38.672Z,71.60
2023-02-16T04:22:09.075Z,88.95
2023-02-16T04:24:41.446Z,73.13
2023-02-16T04:27:16.769Z,67.47
2023-02-16T04:29:48.991Z,69.47
2023-02-16T04:32:23.816Z,73.60
2023-02-16T04:34:53.488Z,78.43
2023-02-16T04:37:31.736Z,70.72
2023-02-16T04:40:02.174Z,70.03
2023-02-16T04:42:40.083Z,67.43
2023-02-16T04:45:13.830Z,70.63
2023-02-16T04:47:44.218Z,59.97
2023-02-16T04:50:18.539Z,76.90
2023-02-16T04:52:50.880Z,78.57
2023-02-16T04:55:21.698Z,69.67
2023-02-16T04:57:54.064Z,72.43
2023-02-16T05:00:24.252Z,78.97
2023-02-16T05:02:54.102Z,71.83
2023-02-16T05:05:21.760Z,78.83
2023-02-16T05:07:48.972Z,68.82
2023-02-16T05:10:19.973Z,74.50
2023-02-16T05:13:07.443Z,75.90
2023-02-16T05:15:40.419Z,64.57
2023-02-16T05:18:10.917Z,76.77
2023-02-16T05:21:10.309Z,71.47
2023-02-16T05:23:39.754Z,65.93
2023-02-16T05:26:08.343Z,77.33
2023-02-16T05:28:40.017Z,74.22
2023-02-16T05:31:07.640Z,74.63
2023-02-16T05:33:35.166Z,73.20
2023-02-16T05:36:02.186Z,69.97
2023-02-16T05:38:29.087Z,77.50
2023-02-16T05:40:56.091Z,69.13
2023-02-16T05:43:23.070Z,76.72
2023-02-16T05:45:51.671Z,66.93
2023-02-16T05:48:18.738Z,73.07
2023-02-16T05:50:45.716Z,76.23
2023-02-16T05:53:12.736Z,70.27
2023-02-16T05:55:39.799Z,74.50
2023-02-16T05:58:06.958Z,77.73
2023-02-16T06:00:33.945Z,68.00
2023-02-16T06:03:02.525Z,85.37
2023-02-16T06:05:29.490Z,77.60
2023-02-16T06:07:56.538Z,91.37
2023-02-16T06:10:23.550Z,87.18
2023-02-16T06:12:50.542Z,76.53
2023-02-16T06:15:18.038Z,76.47
2023-02-16T06:17:45.062Z,75.20
2023-02-16T06:20:13.887Z,83.88
2023-02-16T06:22:40.923Z,61.60
2023-02-16T06:25:08.212Z,67.33
2023-02-16T06:27:35.259Z,66.73
2023-02-16T06:30:03.037Z,68.80
2023-02-16T06:32:30.233Z,73.85
2023-02-16T06:34:57.454Z,60.42
2023-02-16T06:37:25.945Z,72.20
2023-02-16T06:39:52.900Z,64.43
2023-02-16T06:42:19.902Z,77.55
2023-02-16T06:44:47.993Z,59.90
2023-02-16T06:47:14.936Z,66.88
2023-02-16T06:49:42.002Z,76.57
2023-02-16T06:52:09.269Z,62.67
2023-02-16T06:54:37.575Z,71.97
2023-02-16T06:57:04.521Z,69.00
2023-02-16T06:59:31.580Z,64.63
2023-02-16T07:01:58.455Z,70.90
2023-02-16T07:04:25.593Z,63.83
2023-02-16T07:06:52.977Z,75.45
2023-02-16T07:09:19.945Z,65.53
2023-02-16T07:11:48.492Z,65.72
2023-02-16T07:14:16.181Z,56.65
2023-02-16T07:16:43.359Z,59.97
2023-02-16T07:19:10.559Z,63.83
2023-02-16T07:21:37.577Z,57.88
2023-02-16T07:24:05.027Z,70.70
2023-02-16T07:26:32.525Z,69.97
2023-02-16T07:29:01.118Z,72.00
2023-02-16T07:31:28.232Z,64.55
2023-02-16T07:33:55.324Z,62.90
2023-02-16T07:36:22.358Z,60.67
2023-02-16T07:38:49.522Z,72.82
2023-02-16T07:41:16.533Z,64.63
2023-02-16T07:43:44.262Z,61.20
2023-02-16T07:46:12.853Z,63.28
2023-02-16T07:48:39.836Z,60.53
2023-02-16T07:51:07.400Z,67.70
2023-02-16T07:53:34.569Z,64.82
2023-02-16T07:56:01.675Z,62.25
2023-02-16T07:58:29.009Z,66.65
2023-02-16T08:00:57.122Z,60.33
2023-02-16T08:03:25.832Z,59.38
2023-02-16T08:05:52.972Z,62.20
2023-02-16T08:08:20.095Z,53.75
2023-02-16T08:10:47.076Z,64.93
2023-02-16T08:13:14.226Z,65.65
2023-02-16T08:15:43.794Z,72.25
2023-02-16T08:18:10.845Z,61.08
2023-02-16T08:21:01.144Z,63.20
2023-02-16T08:23:26.700Z,61.13
2023-02-16T08:25:53.804Z,58.17
2023-02-16T08:28:22.230Z,62.63
2023-02-16T08:30:49.992Z,62.13
2023-02-16T08:33:17.558Z,63.85
2023-02-16T08:35:46.004Z,62.30
2023-02-16T08:38:12.986Z,68.63
2023-02-16T08:40:39.886Z,65.03
2023-02-16T08:43:07.353Z,70.03
2023-02-16T08:45:34.384Z,65.40
2023-02-16T08:48:02.365Z,60.83
2023-02-16T08:50:29.404Z,63.60
2023-02-16T08:52:58.412Z,62.92
2023-02-16T08:55:25.499Z,65.05
2023-02-16T08:57:52.561Z,61.03
2023-02-16T09:00:35.370Z,68.72
2023-02-16T09:03:02.384Z,63.10
2023-02-16T09:05:29.344Z,63.88
2023-02-16T09:07:57.912Z,63.55
2023-02-16T09:10:25.012Z,60.88
2023-02-16T09:12:52.052Z,66.68
2023-02-16T09:15:19.260Z,62.92
2023-02-16T09:17:46.706Z,66.13
2023-02-16T09:20:13.700Z,52.90
2023-02-16T09:25:12.422Z,59.45
2023-02-16T09:27:40.167Z,74.35
2023-02-16T09:30:09.769Z,80.45
2023-02-16T09:32:37.098Z,62.10
2023-02-16T09:35:05.157Z,58.25
2023-02-16T09:37:33.075Z,53.80
2023-02-16T09:40:00.141Z,48.83
2023-02-16T09:42:37.671Z,62.75
2023-02-16T09:45:09.934Z,64.22
2023-02-16T09:47:40.086Z,57.40
2023-02-16T09:50:15.045Z,61.75
2023-02-16T09:52:47.957Z,64.88
2023-02-16T09:55:16.748Z,59.53
2023-02-16T09:57:57.265Z,63.13
2023-02-16T10:00:39.460Z,60.50
2023-02-16T10:03:21.370Z,59.92
2023-02-16T10:05:56.732Z,64.30
2023-02-16T10:08:27.688Z,56.42
2023-02-16T10:11:03.800Z,62.40
2023-02-16T10:13:41.789Z,66.03
2023-02-16T10:16:31.429Z,62.20
2023-02-16T10:19:02.463Z,51.03
2023-02-16T10:21:31.704Z,54.70
2023-02-16T10:24:04.099Z,55.67
2023-02-16T10:26:36.196Z,59.63
2023-02-16T10:29:07.868Z,44.70
2023-02-16T10:31:40.493Z,43.50
2023-02-16T10:34:21.360Z,61.70
2023-02-16T10:37:12.611Z,45.13
2023-02-16T10:39:45.243Z,58.38
2023-02-16T10:42:21.119Z,47.47
2023-02-16T10:44:56.950Z,46.50
2023-02-16T10:47:33.165Z,50.92
2023-02-16T10:50:00.697Z,50.30
2023-02-16T10:52:32.824Z,49.80
2023-02-16T10:54:59.972Z,43.75
2023-02-16T10:57:29.994Z,41.05
2023-02-16T11:00:01.991Z,51.70
2023-02-16T11:02:36.586Z,51.50
2023-02-16T11:05:31.627Z,48.67
2023-02-16T11:08:03.221Z,54.03
2023-02-16T11:10:46.236Z,47.97
2023-02-16T11:13:36.044Z,48.55
2023-02-16T15:23:41.417Z,21.48
2023-02-16T15:57:01.714Z,12.85
2023-02-16T15:59:36.202Z,16.40
2023-02-16T16:02:20.360Z,16.23
2023-02-16T16:04:55.273Z,14.55
2023-02-16T16:07:27.474Z,15.98
2023-02-16T16:09:57.001Z,23.77
2023-02-16T16:12:27.088Z,12.43
2023-02-16T16:14:57.559Z,16.08
2023-02-16T16:45:40.830Z,13.77
2023-02-16T16:48:10.758Z,17.52
2023-02-16T16:50:39.724Z,14.88
2023-02-16T16:53:38.414Z,17.48
2023-02-16T16:56:09.809Z,22.85
2023-02-16T16:58:36.925Z,17.67
2023-02-16T17:01:05.870Z,26.58
2023-02-16T17:03:33.078Z,18.85
2023-02-16T17:06:00.255Z,21.35
2023-02-16T17:08:27.252Z,21.45
2023-02-16T17:10:54.508Z,24.42
2023-02-16T17:13:22.007Z,20.73
2023-02-16T17:15:53.169Z,27.08
2023-02-16T17:18:22.749Z,25.45
2023-02-16T17:20:50.214Z,30.48
2023-02-16T17:23:19.371Z,24.90
2023-02-16T17:25:47.048Z,24.67
2023-02-16T17:28:16.724Z,29.67
2023-02-16T17:30:44.645Z,24.02
2023-02-16T17:33:12.360Z,20.88
2023-02-16T17:35:45.303Z,26.35
2023-02-16T17:38:17.528Z,19.97
2023-02-16T17:46:01.382Z,21.02
2023-02-16T17:48:39.943Z,35.25
2023-02-16T17:51:26.735Z,30.67
2023-02-16T17:54:11.534Z,26.40
2023-02-16T17:56:46.890Z,24.15
2023-02-16T17:59:15.596Z,31.98
2023-02-16T18:01:43.275Z,27.10
2023-02-16T18:04:22.560Z,19.65
2023-02-16T18:06:55.896Z,29.38
2023-02-16T18:09:24.673Z,25.23
2023-02-16T18:11:51.924Z,22.95
2023-02-16T18:14:19.178Z,26.20
2023-02-16T18:16:51.335Z,26.25
2023-02-16T18:19:19.578Z,28.10
2023-02-16T18:21:46.679Z,27.00
2023-02-16T18:24:15.564Z,22.77
2023-02-16T18:26:42.681Z,22.35
2023-02-16T18:29:09.875Z,22.25
2023-02-16T18:31:39.576Z,27.33
2023-02-16T18:34:06.781Z,24.55
2023-02-16T18:36:33.982Z,24.48
2023-02-16T18:39:01.075Z,22.95
2023-02-16T18:41:29.819Z,25.35
2023-02-16T18:43:56.872Z,22.60
2023-02-16T18:46:23.971Z,19.15
2023-02-16T18:48:51.049Z,21.80
2023-02-16T18:51:18.237Z,19.75
2023-02-16T18:53:45.510Z,19.95
2023-02-16T18:56:12.967Z,20.88
2023-02-16T18:58:41.476Z,20.98
2023-02-16T19:01:13.408Z,18.40
2023-02-16T19:03:40.753Z,19.63
2023-02-16T19:06:08.846Z,19.85
2023-02-16T19:08:36.053Z,16.65
2023-02-16T19:11:03.962Z,14.20
2023-02-16T19:13:40.747Z,14.70
2023-02-16T19:16:09.736Z,12.55
2023-02-16T19:18:37.007Z,12.65
2023-02-16T19:21:06.208Z,15.13
2023-02-16T19:23:33.321Z,10.52
2023-02-16T19:26:05.424Z,15.57
2023-02-16T19:28:32.836Z,9.93
2023-02-16T19:31:07.339Z,16.48
2023-02-16T19:33:36.335Z,18.00
2023-02-16T19:36:04.914Z,12.15
2023-02-16T19:38:32.753Z,10.15
2023-02-16T19:41:00.441Z,9.90
2023-02-16T19:43:27.513Z,8.95
2023-02-16T19:45:54.566Z,9.55
2023-02-16T19:48:21.685Z,9.10
2023-02-16T19:50:50.136Z,11.32
2023-02-16T19:53:17.189Z,10.40
2023-02-16T19:55:44.843Z,8.82
2023-02-16T19:58:12.222Z,9.85
2023-02-16T20:00:39.431Z,12.25
2023-02-16T20:03:06.916Z,10.85
2023-02-16T20:05:34.148Z,12.43
2023-02-16T20:08:02.796Z,10.60
2023-02-16T20:10:30.363Z,9.02
2023-02-16T20:12:57.662Z,9.52
2023-02-16T20:15:25.020Z,7.72
2023-02-16T20:17:55.684Z,8.65
2023-02-16T20:20:23.680Z,9.40
2023-02-16T20:22:50.735Z,12.82
2023-02-16T20:25:19.528Z,9.65
2023-02-16T20:27:46.646Z,10.30
2023-02-16T20:30:17.238Z,12.02
2023-02-16T20:32:45.739Z,9.18
2023-02-16T20:35:14.499Z,10.23
2023-02-16T20:37:41.939Z,9.93
2023-02-16T20:40:09.880Z,9.98
2023-02-16T20:42:38.573Z,11.40
2023-02-16T20:45:06.857Z,10.35
2023-02-16T20:47:35.651Z,9.43
2023-02-16T20:50:02.907Z,9.45
2023-02-16T20:52:29.891Z,8.88
2023-02-16T20:54:57.463Z,12.27
2023-02-16T20:57:27.192Z,8.38
2023-02-16T20:59:56.288Z,11.75
2023-02-16T21:02:23.657Z,16.02
2023-02-16T21:04:50.814Z,12.88
2023-02-16T21:07:17.850Z,9.02
2023-02-16T21:09:45.983Z,13.70
2023-02-16T21:12:13.042Z,8.05
2023-02-16T21:14:40.255Z,8.85
2023-02-16T21:17:08.783Z,9.93
2023-02-16T21:19:38.058Z,6.45
2023-02-16T21:22:04.990Z,6.55
2023-02-16T21:24:32.050Z,7.38
2023-02-16T21:26:59.101Z,8.63
2023-02-16T21:29:29.149Z,7.60
2023-02-16T21:31:56.621Z,9.48
2023-02-16T21:34:25.367Z,7.60
2023-02-16T21:36:52.839Z,6.30
2023-02-16T21:39:41.528Z,8.15
2023-02-16T21:42:08.640Z,6.25
2023-02-16T21:44:43.668Z,6.18
2023-02-16T21:47:32.114Z,6.78
2023-02-16T21:50:01.007Z,6.95
2023-02-16T21:52:28.118Z,8.95
2023-02-16T21:55:14.026Z,8.80
2023-02-16T21:57:41.602Z,7.05
2023-02-16T22:00:13.625Z,7.15
2023-02-16T22:02:40.834Z,6.45
2023-02-16T22:05:12.114Z,10.20
2023-02-16T22:07:39.241Z,8.32
2023-02-16T22:10:08.389Z,10.88
2023-02-16T22:12:36.395Z,9.25
2023-02-16T22:15:03.746Z,11.55
2023-02-16T22:17:32.020Z,12.88
2023-02-16T22:19:59.622Z,13.30
2023-02-16T22:22:28.191Z,9.90
2023-02-16T22:24:55.468Z,12.15
2023-02-16T22:27:22.743Z,20.60
2023-02-16T22:29:52.137Z,16.63
2023-02-16T22:32:19.555Z,11.95
2023-02-16T22:34:46.586Z,10.20
2023-02-16T22:37:14.215Z,14.65
2023-02-16T22:39:42.689Z,16.70
2023-02-16T22:42:10.259Z,13.55
2023-02-16T22:44:38.149Z,16.95
2023-02-16T22:47:05.922Z,10.43
2023-02-16T22:49:33.120Z,13.82
2023-02-16T22:52:00.294Z,9.82
2023-02-16T22:54:27.391Z,13.48
2023-02-16T22:56:56.302Z,12.20
2023-02-16T22:59:23.722Z,11.57
2023-02-16T23:01:51.287Z,11.77
2023-02-16T23:04:19.735Z,12.63
2023-02-16T23:06:47.067Z,13.32
2023-02-16T23:09:18.123Z,13.20
2023-02-16T23:11:48.370Z,11.38
2023-02-16T23:14:17.884Z,11.98
2023-02-16T23:16:45.756Z,15.07
2023-02-16T23:19:14.705Z,12.48
2023-02-16T23:21:42.279Z,10.38
2023-02-16T23:24:14.030Z,9.90
2023-02-16T23:26:41.885Z,12.20
2023-02-16T23:29:09.572Z,12.38
2023-02-16T23:31:40.240Z,14.35
2023-02-16T23:34:08.310Z,10.07
2023-02-16T23:36:37.984Z,13.88
2023-02-16T23:39:07.689Z,13.73
2023-02-16T23:41:35.167Z,13.60
2023-02-16T23:44:02.715Z,18.23
2023-02-16T23:46:30.049Z,12.82
2023-02-16T23:48:58.681Z,13.40
2023-02-16T23:51:26.402Z,10.80
2023-02-16T23:53:53.652Z,10.98
2023-02-16T23:56:22.531Z,13.27
2023-02-16T23:58:50.432Z,16.55
